الصفحة الرئيسية
METAR-TAF:

METAR-TAF

مطار :

مطار ساموي

جزيرة ساموي, تايلاند

دائرة عرض: 09-32-52N, خط طول: 100-03-44E, ارتفاع: 20 متر

مراقبة الطقس الحالي

تاريخ ووقت الإصدار 5ساعات و 36 دقيقة قبل الساعة 13:00UTC
رياح هادئة
درجة الحرارة 29°درجة مئوية
الرطوبة 79%
ضغط 1012 hPa
الرؤية: 9000 متر
غيوم قليلة على ارتفاع 2000 قدم

METAR: VTSM 211300Z 00000KT 9000 FEW020 29/25 Q1012 NOSIG

زمن: 01:36 (18:36 UTC)

توقعات

تاريخ ووقت الإصدار 1ساعة و 36 دقيقة قبل الساعة 17:00UTC
التوقعات صالحة من21 الساعة 18 UTC إلى 22 الساعة 18 UTC
ريح 5 عقدة من الشمال/الشمال الغربي
الرؤية 10 كم أو أكثر
غيوم قليلة على ارتفاع 2000 قدم
غيوم متفرقة على ارتفاع 10000 قدم
مؤقت
من 21 الساعة 18 UTC إلى 21 الساعة 24 UTC
الرؤية: 4000 متر
مطر
مؤقت
من 22 الساعة 06 UTC إلى 22 الساعة 12 UTC
ريح 15 عقدةمن اتجاهات متغيرة تتزايد حتى 25 عقدة
الرؤية: 4000 متر
غيوم قليلة على ارتفاع 1600 قدم, مزنة ركامية.
غيوم متفرقة على ارتفاع 1800 قدم
غيوم مفككة على ارتفاع 10000 قدم
عاصفة رعدية, مطر

TAF: VTSM 211700Z 2118/2218 33005KT 9999 FEW020 SCT100 TEMPO 2118/2124 4000 RA TEMPO 2206/2212 VRB15G25KT 4000 TSRA FEW016CB SCT018 BKN100

أرصاد الطقس والتوقعات من أكثر من 4000 مطار (تقارير الطقس للمطار METAR والتنبؤ بالطقس بالمطارTAF).

المحطات المتاحة هي النقط الصفراء والحمراء على الخريطة.

حرك المؤشر فوق النقطة لمعرفة اسم المحطة.

ثم انقر لمعرفة أرصاد وتوقعات الطقس.

لتغيير الخارطة: اضغط على الأزرار الخضراء مع رمز الصليب الأسود للتكبير. على الزر الأخضر مع شرطة للتصغير، أو على الأسهم الخضراء للخرائط المجاورة.


METAR-TAF: